sensor_id;sensor_type;location;lat;lon;timestamp;P1;durP1;ratioP1;P2;durP2;ratioP2
1471;SDS011;963;42.644;23.336;2023-07-13T00:01:16;9.20;;;4.93;;
1471;SDS011;963;42.644;23.336;2023-07-13T00:03:42;5.60;;;4.70;;
1471;SDS011;963;42.644;23.336;2023-07-13T00:06:08;8.33;;;4.60;;
1471;SDS011;963;42.644;23.336;2023-07-13T00:08:34;7.40;;;5.07;;
1471;SDS011;963;42.644;23.336;2023-07-13T00:11:00;8.17;;;4.70;;
1471;SDS011;963;42.644;23.336;2023-07-13T00:13:26;6.90;;;4.87;;
1471;SDS011;963;42.644;23.336;2023-07-13T00:15:52;6.80;;;5.00;;
1471;SDS011;963;42.644;23.336;2023-07-13T00:18:19;7.10;;;4.67;;
1471;SDS011;963;42.644;23.336;2023-07-13T00:20:44;8.60;;;4.97;;
1471;SDS011;963;42.644;23.336;2023-07-13T00:23:10;8.60;;;4.80;;
1471;SDS011;963;42.644;23.336;2023-07-13T00:25:36;12.73;;;6.03;;
1471;SDS011;963;42.644;23.336;2023-07-13T00:28:01;11.40;;;5.60;;
1471;SDS011;963;42.644;23.336;2023-07-13T00:30:27;10.37;;;5.50;;
1471;SDS011;963;42.644;23.336;2023-07-13T00:32:52;5.77;;;4.97;;
1471;SDS011;963;42.644;23.336;2023-07-13T00:35:18;5.83;;;4.97;;
1471;SDS011;963;42.644;23.336;2023-07-13T00:37:43;8.57;;;5.67;;
1471;SDS011;963;42.644;23.336;2023-07-13T00:40:10;9.70;;;6.37;;
1471;SDS011;963;42.644;23.336;2023-07-13T00:42:37;9.23;;;5.37;;
1471;SDS011;963;42.644;23.336;2023-07-13T00:47:31;7.87;;;5.63;;
1471;SDS011;963;42.644;23.336;2023-07-13T00:49:57;7.30;;;5.37;;
1471;SDS011;963;42.644;23.336;2023-07-13T00:52:22;8.97;;;5.60;;
1471;SDS011;963;42.644;23.336;2023-07-13T00:54:48;8.83;;;5.77;;
1471;SDS011;963;42.644;23.336;2023-07-13T00:57:15;6.67;;;4.53;;
1471;SDS011;963;42.644;23.336;2023-07-13T00:59:47;8.80;;;5.77;;
1471;SDS011;963;42.644;23.336;2023-07-13T01:02:16;8.47;;;5.20;;
1471;SDS011;963;42.644;23.336;2023-07-13T01:04:41;7.33;;;5.77;;
1471;SDS011;963;42.644;23.336;2023-07-13T01:07:09;9.10;;;5.63;;
1471;SDS011;963;42.644;23.336;2023-07-13T01:09:37;7.73;;;5.03;;
1471;SDS011;963;42.644;23.336;2023-07-13T01:12:02;7.70;;;5.63;;
1471;SDS011;963;42.644;23.336;2023-07-13T01:14:28;8.30;;;5.33;;
1471;SDS011;963;42.644;23.336;2023-07-13T01:16:53;7.90;;;5.70;;
1471;SDS011;963;42.644;23.336;2023-07-13T01:19:33;7.13;;;5.23;;
1471;SDS011;963;42.644;23.336;2023-07-13T01:22:03;7.10;;;5.50;;
1471;SDS011;963;42.644;23.336;2023-07-13T01:24:33;7.90;;;5.60;;
1471;SDS011;963;42.644;23.336;2023-07-13T01:27:00;9.03;;;5.50;;
1471;SDS011;963;42.644;23.336;2023-07-13T01:29:25;7.97;;;5.50;;
1471;SDS011;963;42.644;23.336;2023-07-13T01:31:50;9.83;;;6.17;;
1471;SDS011;963;42.644;23.336;2023-07-13T01:34:16;9.67;;;6.43;;
1471;SDS011;963;42.644;23.336;2023-07-13T01:36:42;7.43;;;5.10;;
1471;SDS011;963;42.644;23.336;2023-07-13T01:39:07;13.27;;;6.10;;
1471;SDS011;963;42.644;23.336;2023-07-13T01:41:32;6.83;;;6.13;;
1471;SDS011;963;42.644;23.336;2023-07-13T01:43:58;5.90;;;5.20;;
1471;SDS011;963;42.644;23.336;2023-07-13T01:46:23;8.50;;;5.87;;
1471;SDS011;963;42.644;23.336;2023-07-13T01:48:48;8.53;;;6.17;;
1471;SDS011;963;42.644;23.336;2023-07-13T01:51:15;8.93;;;5.30;;
1471;SDS011;963;42.644;23.336;2023-07-13T01:53:41;6.80;;;6.10;;
1471;SDS011;963;42.644;23.336;2023-07-13T01:56:06;9.97;;;6.63;;
1471;SDS011;963;42.644;23.336;2023-07-13T01:58:31;8.83;;;5.47;;
1471;SDS011;963;42.644;23.336;2023-07-13T02:00:57;9.13;;;5.70;;
1471;SDS011;963;42.644;23.336;2023-07-13T02:03:23;10.93;;;5.57;;
1471;SDS011;963;42.644;23.336;2023-07-13T02:05:49;9.80;;;5.80;;
1471;SDS011;963;42.644;23.336;2023-07-13T02:08:14;12.60;;;4.90;;
1471;SDS011;963;42.644;23.336;2023-07-13T02:10:39;11.50;;;5.30;;
1471;SDS011;963;42.644;23.336;2023-07-13T02:13:05;8.03;;;5.17;;
1471;SDS011;963;42.644;23.336;2023-07-13T02:15:31;7.80;;;5.17;;
1471;SDS011;963;42.644;23.336;2023-07-13T02:17:57;7.93;;;5.90;;
1471;SDS011;963;42.644;23.336;2023-07-13T02:20:23;8.20;;;5.37;;
1471;SDS011;963;42.644;23.336;2023-07-13T02:22:49;10.83;;;5.20;;
1471;SDS011;963;42.644;23.336;2023-07-13T02:25:15;7.03;;;5.40;;
1471;SDS011;963;42.644;23.336;2023-07-13T02:27:40;7.60;;;5.17;;
1471;SDS011;963;42.644;23.336;2023-07-13T02:30:06;9.47;;;5.70;;
1471;SDS011;963;42.644;23.336;2023-07-13T02:32:32;9.50;;;5.50;;
1471;SDS011;963;42.644;23.336;2023-07-13T02:34:58;12.23;;;6.10;;
1471;SDS011;963;42.644;23.336;2023-07-13T02:37:24;8.33;;;5.90;;
1471;SDS011;963;42.644;23.336;2023-07-13T02:39:49;8.73;;;6.17;;
1471;SDS011;963;42.644;23.336;2023-07-13T02:42:15;7.40;;;5.83;;
1471;SDS011;963;42.644;23.336;2023-07-13T02:44:40;7.80;;;5.33;;
1471;SDS011;963;42.644;23.336;2023-07-13T02:47:06;6.27;;;5.10;;
1471;SDS011;963;42.644;23.336;2023-07-13T02:49:31;8.63;;;5.63;;
1471;SDS011;963;42.644;23.336;2023-07-13T02:51:57;10.20;;;6.50;;
1471;SDS011;963;42.644;23.336;2023-07-13T02:54:22;7.63;;;5.83;;
1471;SDS011;963;42.644;23.336;2023-07-13T02:56:48;8.60;;;5.90;;
1471;SDS011;963;42.644;23.336;2023-07-13T02:59:13;6.67;;;5.53;;
1471;SDS011;963;42.644;23.336;2023-07-13T03:01:39;6.40;;;5.17;;
1471;SDS011;963;42.644;23.336;2023-07-13T03:04:05;6.63;;;5.83;;
1471;SDS011;963;42.644;23.336;2023-07-13T03:06:31;8.17;;;5.90;;
1471;SDS011;963;42.644;23.336;2023-07-13T03:08:57;11.70;;;5.93;;
1471;SDS011;963;42.644;23.336;2023-07-13T03:11:23;11.83;;;6.50;;
1471;SDS011;963;42.644;23.336;2023-07-13T03:13:48;9.80;;;5.77;;
1471;SDS011;963;42.644;23.336;2023-07-13T03:16:14;10.10;;;6.23;;
1471;SDS011;963;42.644;23.336;2023-07-13T03:18:41;9.37;;;6.47;;
1471;SDS011;963;42.644;23.336;2023-07-13T03:21:06;8.23;;;5.37;;
1471;SDS011;963;42.644;23.336;2023-07-13T03:23:32;9.30;;;6.30;;
1471;SDS011;963;42.644;23.336;2023-07-13T03:26:05;9.20;;;6.10;;
1471;SDS011;963;42.644;23.336;2023-07-13T03:28:32;7.23;;;6.07;;
1471;SDS011;963;42.644;23.336;2023-07-13T03:31:05;8.23;;;6.50;;
1471;SDS011;963;42.644;23.336;2023-07-13T03:33:32;9.77;;;7.37;;
1471;SDS011;963;42.644;23.336;2023-07-13T03:35:57;11.47;;;6.13;;
1471;SDS011;963;42.644;23.336;2023-07-13T03:38:23;8.93;;;6.50;;
1471;SDS011;963;42.644;23.336;2023-07-13T03:40:49;6.87;;;5.87;;
1471;SDS011;963;42.644;23.336;2023-07-13T03:43:14;10.73;;;5.93;;
1471;SDS011;963;42.644;23.336;2023-07-13T03:45:40;10.50;;;6.60;;
1471;SDS011;963;42.644;23.336;2023-07-13T03:48:05;10.50;;;6.80;;
1471;SDS011;963;42.644;23.336;2023-07-13T03:50:31;8.07;;;6.47;;
1471;SDS011;963;42.644;23.336;2023-07-13T03:52:57;8.50;;;7.10;;
1471;SDS011;963;42.644;23.336;2023-07-13T03:55:23;12.17;;;7.13;;
1471;SDS011;963;42.644;23.336;2023-07-13T03:57:52;8.27;;;6.60;;
1471;SDS011;963;42.644;23.336;2023-07-13T04:00:19;10.10;;;6.40;;
1471;SDS011;963;42.644;23.336;2023-07-13T04:02:44;9.37;;;7.17;;
1471;SDS011;963;42.644;23.336;2023-07-13T04:05:12;11.60;;;7.20;;
1471;SDS011;963;42.644;23.336;2023-07-13T04:07:37;8.67;;;7.07;;
1471;SDS011;963;42.644;23.336;2023-07-13T04:10:03;11.90;;;8.20;;
1471;SDS011;963;42.644;23.336;2023-07-13T04:12:28;8.80;;;7.80;;
1471;SDS011;963;42.644;23.336;2023-07-13T04:14:54;10.33;;;7.90;;
1471;SDS011;963;42.644;23.336;2023-07-13T04:17:19;14.90;;;9.10;;
1471;SDS011;963;42.644;23.336;2023-07-13T04:19:45;10.30;;;7.83;;
1471;SDS011;963;42.644;23.336;2023-07-13T04:22:10;11.03;;;8.80;;
1471;SDS011;963;42.644;23.336;2023-07-13T04:24:35;10.90;;;8.07;;
1471;SDS011;963;42.644;23.336;2023-07-13T04:27:01;11.30;;;8.23;;
1471;SDS011;963;42.644;23.336;2023-07-13T04:29:28;12.17;;;8.57;;
1471;SDS011;963;42.644;23.336;2023-07-13T04:31:53;11.97;;;8.80;;
1471;SDS011;963;42.644;23.336;2023-07-13T04:34:18;13.07;;;9.10;;
1471;SDS011;963;42.644;23.336;2023-07-13T04:36:44;15.03;;;10.57;;
1471;SDS011;963;42.644;23.336;2023-07-13T04:39:09;16.77;;;9.43;;
1471;SDS011;963;42.644;23.336;2023-07-13T04:41:34;12.60;;;8.63;;
1471;SDS011;963;42.644;23.336;2023-07-13T04:44:00;17.10;;;9.80;;
1471;SDS011;963;42.644;23.336;2023-07-13T04:46:25;16.10;;;9.57;;
1471;SDS011;963;42.644;23.336;2023-07-13T04:48:51;10.77;;;9.23;;
1471;SDS011;963;42.644;23.336;2023-07-13T04:51:18;15.57;;;9.63;;
1471;SDS011;963;42.644;23.336;2023-07-13T04:53:44;17.13;;;10.67;;
1471;SDS011;963;42.644;23.336;2023-07-13T04:56:09;14.30;;;10.77;;
1471;SDS011;963;42.644;23.336;2023-07-13T04:58:35;13.97;;;9.83;;
1471;SDS011;963;42.644;23.336;2023-07-13T05:01:01;17.87;;;10.40;;
1471;SDS011;963;42.644;23.336;2023-07-13T05:03:28;13.90;;;10.30;;
1471;SDS011;963;42.644;23.336;2023-07-13T05:05:54;14.70;;;9.70;;
1471;SDS011;963;42.644;23.336;2023-07-13T05:08:24;20.03;;;10.37;;
1471;SDS011;963;42.644;23.336;2023-07-13T05:10:51;13.63;;;10.83;;
1471;SDS011;963;42.644;23.336;2023-07-13T05:13:17;14.13;;;11.00;;
1471;SDS011;963;42.644;23.336;2023-07-13T05:15:42;14.47;;;9.73;;
1471;SDS011;963;42.644;23.336;2023-07-13T05:18:08;12.80;;;10.70;;
1471;SDS011;963;42.644;23.336;2023-07-13T05:20:33;13.20;;;10.13;;
1471;SDS011;963;42.644;23.336;2023-07-13T05:22:59;13.40;;;10.23;;
1471;SDS011;963;42.644;23.336;2023-07-13T05:25:24;18.20;;;10.10;;
1471;SDS011;963;42.644;23.336;2023-07-13T05:27:50;14.67;;;10.13;;
1471;SDS011;963;42.644;23.336;2023-07-13T05:30:15;14.87;;;10.33;;
1471;SDS011;963;42.644;23.336;2023-07-13T05:32:41;15.83;;;11.63;;
1471;SDS011;963;42.644;23.336;2023-07-13T05:35:06;13.37;;;11.27;;
1471;SDS011;963;42.644;23.336;2023-07-13T05:37:32;14.53;;;11.80;;
1471;SDS011;963;42.644;23.336;2023-07-13T05:39:57;18.10;;;10.90;;
1471;SDS011;963;42.644;23.336;2023-07-13T05:42:23;13.70;;;11.67;;
1471;SDS011;963;42.644;23.336;2023-07-13T05:44:49;14.30;;;11.53;;
1471;SDS011;963;42.644;23.336;2023-07-13T05:47:14;14.40;;;11.03;;
1471;SDS011;963;42.644;23.336;2023-07-13T05:49:40;19.00;;;11.93;;
1471;SDS011;963;42.644;23.336;2023-07-13T05:52:05;17.27;;;11.37;;
1471;SDS011;963;42.644;23.336;2023-07-13T05:54:31;18.07;;;10.67;;
1471;SDS011;963;42.644;23.336;2023-07-13T05:56:57;23.03;;;11.90;;
1471;SDS011;963;42.644;23.336;2023-07-13T05:59:22;17.40;;;11.87;;
1471;SDS011;963;42.644;23.336;2023-07-13T06:01:48;18.23;;;10.93;;
1471;SDS011;963;42.644;23.336;2023-07-13T06:04:14;19.10;;;12.00;;
1471;SDS011;963;42.644;23.336;2023-07-13T06:06:39;13.57;;;11.20;;
1471;SDS011;963;42.644;23.336;2023-07-13T06:09:04;21.53;;;11.43;;
1471;SDS011;963;42.644;23.336;2023-07-13T06:11:30;17.87;;;11.63;;
1471;SDS011;963;42.644;23.336;2023-07-13T06:13:56;18.40;;;11.97;;
1471;SDS011;963;42.644;23.336;2023-07-13T06:16:21;15.50;;;11.07;;
1471;SDS011;963;42.644;23.336;2023-07-13T06:18:47;21.07;;;10.37;;
1471;SDS011;963;42.644;23.336;2023-07-13T06:21:17;16.60;;;10.57;;
1471;SDS011;963;42.644;23.336;2023-07-13T06:23:44;20.27;;;11.13;;
1471;SDS011;963;42.644;23.336;2023-07-13T06:26:12;18.17;;;10.63;;
1471;SDS011;963;42.644;23.336;2023-07-13T06:28:38;20.83;;;11.30;;
1471;SDS011;963;42.644;23.336;2023-07-13T06:31:05;14.53;;;9.47;;
1471;SDS011;963;42.644;23.336;2023-07-13T06:33:32;21.10;;;10.23;;
1471;SDS011;963;42.644;23.336;2023-07-13T06:35:58;19.53;;;9.07;;
1471;SDS011;963;42.644;23.336;2023-07-13T06:38:23;16.70;;;8.40;;
1471;SDS011;963;42.644;23.336;2023-07-13T06:40:48;16.13;;;9.20;;
1471;SDS011;963;42.644;23.336;2023-07-13T06:43:14;15.53;;;9.70;;
1471;SDS011;963;42.644;23.336;2023-07-13T06:45:43;11.93;;;9.20;;
1471;SDS011;963;42.644;23.336;2023-07-13T06:48:12;12.90;;;8.87;;
1471;SDS011;963;42.644;23.336;2023-07-13T06:50:39;17.33;;;9.03;;
1471;SDS011;963;42.644;23.336;2023-07-13T06:53:04;16.83;;;8.30;;
1471;SDS011;963;42.644;23.336;2023-07-13T06:55:30;13.87;;;8.17;;
1471;SDS011;963;42.644;23.336;2023-07-13T06:57:55;13.87;;;8.33;;
1471;SDS011;963;42.644;23.336;2023-07-13T07:00:21;13.20;;;8.33;;
1471;SDS011;963;42.644;23.336;2023-07-13T07:02:46;15.67;;;9.30;;
1471;SDS011;963;42.644;23.336;2023-07-13T07:05:12;18.67;;;9.00;;
1471;SDS011;963;42.644;23.336;2023-07-13T07:07:37;12.93;;;9.20;;
1471;SDS011;963;42.644;23.336;2023-07-13T07:10:02;13.53;;;8.13;;
1471;SDS011;963;42.644;23.336;2023-07-13T07:12:28;9.73;;;7.93;;
1471;SDS011;963;42.644;23.336;2023-07-13T07:14:54;13.93;;;8.50;;
1471;SDS011;963;42.644;23.336;2023-07-13T07:17:19;12.00;;;7.97;;
1471;SDS011;963;42.644;23.336;2023-07-13T07:19:45;11.60;;;8.10;;
1471;SDS011;963;42.644;23.336;2023-07-13T07:22:10;11.50;;;8.60;;
1471;SDS011;963;42.644;23.336;2023-07-13T07:24:36;13.53;;;9.43;;
1471;SDS011;963;42.644;23.336;2023-07-13T07:27:01;11.00;;;8.80;;
1471;SDS011;963;42.644;23.336;2023-07-13T07:29:27;9.90;;;7.80;;
1471;SDS011;963;42.644;23.336;2023-07-13T07:31:52;10.00;;;8.13;;
1471;SDS011;963;42.644;23.336;2023-07-13T07:34:18;12.53;;;8.97;;
1471;SDS011;963;42.644;23.336;2023-07-13T07:36:44;9.70;;;8.47;;
1471;SDS011;963;42.644;23.336;2023-07-13T07:39:09;11.03;;;8.70;;
1471;SDS011;963;42.644;23.336;2023-07-13T07:41:35;10.90;;;8.63;;
1471;SDS011;963;42.644;23.336;2023-07-13T07:44:00;13.73;;;9.33;;
1471;SDS011;963;42.644;23.336;2023-07-13T07:46:26;13.80;;;9.83;;
1471;SDS011;963;42.644;23.336;2023-07-13T07:48:51;17.93;;;9.50;;
1471;SDS011;963;42.644;23.336;2023-07-13T07:51:17;11.10;;;7.93;;
1471;SDS011;963;42.644;23.336;2023-07-13T07:53:42;13.00;;;8.40;;
1471;SDS011;963;42.644;23.336;2023-07-13T07:56:07;10.20;;;8.27;;
1471;SDS011;963;42.644;23.336;2023-07-13T07:58:35;15.00;;;9.13;;
1471;SDS011;963;42.644;23.336;2023-07-13T08:01:06;10.37;;;8.70;;
1471;SDS011;963;42.644;23.336;2023-07-13T08:03:31;13.37;;;8.90;;
1471;SDS011;963;42.644;23.336;2023-07-13T08:05:57;12.70;;;8.80;;
1471;SDS011;963;42.644;23.336;2023-07-13T08:08:23;14.93;;;8.70;;
1471;SDS011;963;42.644;23.336;2023-07-13T08:10:49;13.80;;;8.80;;
1471;SDS011;963;42.644;23.336;2023-07-13T08:13:15;15.13;;;8.13;;
1471;SDS011;963;42.644;23.336;2023-07-13T08:15:40;13.50;;;10.00;;
1471;SDS011;963;42.644;23.336;2023-07-13T08:18:06;12.00;;;8.73;;
1471;SDS011;963;42.644;23.336;2023-07-13T08:20:33;17.40;;;8.43;;
1471;SDS011;963;42.644;23.336;2023-07-13T08:22:58;15.10;;;8.80;;
1471;SDS011;963;42.644;23.336;2023-07-13T08:25:24;10.53;;;8.00;;
1471;SDS011;963;42.644;23.336;2023-07-13T08:27:49;9.10;;;8.17;;
1471;SDS011;963;42.644;23.336;2023-07-13T08:30:15;10.83;;;8.30;;
1471;SDS011;963;42.644;23.336;2023-07-13T08:32:40;15.30;;;8.43;;
1471;SDS011;963;42.644;23.336;2023-07-13T08:35:05;13.30;;;8.10;;
1471;SDS011;963;42.644;23.336;2023-07-13T08:37:31;17.07;;;9.70;;
1471;SDS011;963;42.644;23.336;2023-07-13T08:39:57;15.03;;;10.53;;
1471;SDS011;963;42.644;23.336;2023-07-13T08:42:26;12.83;;;8.50;;
1471;SDS011;963;42.644;23.336;2023-07-13T08:47:30;16.60;;;10.47;;
1471;SDS011;963;42.644;23.336;2023-07-13T08:49:58;16.13;;;10.50;;
1471;SDS011;963;42.644;23.336;2023-07-13T08:54:58;14.37;;;8.77;;
1471;SDS011;963;42.644;23.336;2023-07-13T08:57:31;15.57;;;9.60;;
1471;SDS011;963;42.644;23.336;2023-07-13T08:59:59;12.27;;;8.27;;
1471;SDS011;963;42.644;23.336;2023-07-13T09:05:38;9.97;;;8.63;;
1471;SDS011;963;42.644;23.336;2023-07-13T09:11:20;11.70;;;8.33;;
1471;SDS011;963;42.644;23.336;2023-07-13T09:16:29;11.23;;;8.90;;
1471;SDS011;963;42.644;23.336;2023-07-13T09:18:56;10.97;;;8.70;;
1471;SDS011;963;42.644;23.336;2023-07-13T09:21:37;15.40;;;8.60;;
1471;SDS011;963;42.644;23.336;2023-07-13T09:27:13;11.90;;;8.07;;
1471;SDS011;963;42.644;23.336;2023-07-13T09:29:46;10.37;;;8.10;;
1471;SDS011;963;42.644;23.336;2023-07-13T09:32:16;13.93;;;7.90;;
1471;SDS011;963;42.644;23.336;2023-07-13T09:34:49;13.17;;;7.70;;
1471;SDS011;963;42.644;23.336;2023-07-13T09:37:20;11.47;;;8.80;;
1471;SDS011;963;42.644;23.336;2023-07-13T09:39:48;10.10;;;8.07;;
1471;SDS011;963;42.644;23.336;2023-07-13T09:42:18;10.27;;;8.03;;
1471;SDS011;963;42.644;23.336;2023-07-13T09:44:53;11.53;;;8.60;;
1471;SDS011;963;42.644;23.336;2023-07-13T09:47:28;9.17;;;8.13;;
1471;SDS011;963;42.644;23.336;2023-07-13T09:50:00;13.70;;;8.50;;
1471;SDS011;963;42.644;23.336;2023-07-13T09:52:41;12.80;;;8.50;;
1471;SDS011;963;42.644;23.336;2023-07-13T09:57:50;9.80;;;7.87;;
1471;SDS011;963;42.644;23.336;2023-07-13T10:00:26;13.40;;;9.23;;
1471;SDS011;963;42.644;23.336;2023-07-13T10:02:58;10.53;;;8.27;;
1471;SDS011;963;42.644;23.336;2023-07-13T10:05:36;13.23;;;9.40;;
1471;SDS011;963;42.644;23.336;2023-07-13T10:08:03;15.30;;;9.20;;
1471;SDS011;963;42.644;23.336;2023-07-13T10:10:32;13.97;;;8.47;;
1471;SDS011;963;42.644;23.336;2023-07-13T10:12:58;12.70;;;9.07;;
1471;SDS011;963;42.644;23.336;2023-07-13T10:15:24;16.77;;;9.20;;
1471;SDS011;963;42.644;23.336;2023-07-13T10:17:51;11.40;;;8.70;;
1471;SDS011;963;42.644;23.336;2023-07-13T10:20:17;14.83;;;8.73;;
1471;SDS011;963;42.644;23.336;2023-07-13T10:22:50;11.73;;;8.80;;
1471;SDS011;963;42.644;23.336;2023-07-13T10:25:41;10.97;;;8.57;;
1471;SDS011;963;42.644;23.336;2023-07-13T10:30:58;10.30;;;6.90;;
1471;SDS011;963;42.644;23.336;2023-07-13T10:33:26;9.57;;;6.93;;
1471;SDS011;963;42.644;23.336;2023-07-13T10:35:53;11.23;;;7.60;;
1471;SDS011;963;42.644;23.336;2023-07-13T10:38:26;12.30;;;7.10;;
1471;SDS011;963;42.644;23.336;2023-07-13T10:43:39;13.10;;;7.80;;
1471;SDS011;963;42.644;23.336;2023-07-13T10:46:08;14.90;;;8.03;;
1471;SDS011;963;42.644;23.336;2023-07-13T10:48:37;11.17;;;6.60;;
1471;SDS011;963;42.644;23.336;2023-07-13T10:51:05;8.43;;;6.00;;
1471;SDS011;963;42.644;23.336;2023-07-13T10:53:36;7.70;;;5.87;;
1471;SDS011;963;42.644;23.336;2023-07-13T10:58:39;13.30;;;6.83;;
1471;SDS011;963;42.644;23.336;2023-07-13T11:01:09;11.20;;;7.37;;
1471;SDS011;963;42.644;23.336;2023-07-13T11:18:51;14.10;;;7.00;;
1471;SDS011;963;42.644;23.336;2023-07-13T11:21:19;9.50;;;7.60;;
1471;SDS011;963;42.644;23.336;2023-07-13T11:24:00;10.37;;;7.60;;
1471;SDS011;963;42.644;23.336;2023-07-13T11:26:46;9.93;;;6.93;;
1471;SDS011;963;42.644;23.336;2023-07-13T11:31:59;9.20;;;6.43;;
1471;SDS011;963;42.644;23.336;2023-07-13T11:36:54;10.40;;;6.83;;
1471;SDS011;963;42.644;23.336;2023-07-13T11:39:24;12.37;;;6.73;;
1471;SDS011;963;42.644;23.336;2023-07-13T11:41:56;9.10;;;5.47;;
1471;SDS011;963;42.644;23.336;2023-07-13T11:44:25;10.30;;;7.37;;
1471;SDS011;963;42.644;23.336;2023-07-13T11:46:53;26.00;;;7.80;;
1471;SDS011;963;42.644;23.336;2023-07-13T11:49:21;12.80;;;5.33;;
1471;SDS011;963;42.644;23.336;2023-07-13T11:51:48;18.03;;;6.73;;
1471;SDS011;963;42.644;23.336;2023-07-13T11:57:06;13.10;;;6.73;;
1471;SDS011;963;42.644;23.336;2023-07-13T11:59:42;14.90;;;6.67;;
1471;SDS011;963;42.644;23.336;2023-07-13T12:02:16;8.30;;;7.10;;
1471;SDS011;963;42.644;23.336;2023-07-13T12:04:50;10.80;;;7.03;;
1471;SDS011;963;42.644;23.336;2023-07-13T12:07:17;11.10;;;5.73;;
1471;SDS011;963;42.644;23.336;2023-07-13T12:09:44;8.47;;;6.43;;
1471;SDS011;963;42.644;23.336;2023-07-13T12:12:14;12.00;;;6.70;;
1471;SDS011;963;42.644;23.336;2023-07-13T12:14:42;11.90;;;6.30;;
1471;SDS011;963;42.644;23.336;2023-07-13T12:17:09;13.07;;;6.90;;
1471;SDS011;963;42.644;23.336;2023-07-13T12:19:47;8.63;;;6.90;;
1471;SDS011;963;42.644;23.336;2023-07-13T12:22:17;22.87;;;7.70;;
1471;SDS011;963;42.644;23.336;2023-07-13T12:24:44;18.80;;;11.57;;
1471;SDS011;963;42.644;23.336;2023-07-13T12:27:21;15.23;;;7.07;;
1471;SDS011;963;42.644;23.336;2023-07-13T12:30:03;10.97;;;5.90;;
1471;SDS011;963;42.644;23.336;2023-07-13T12:32:31;11.27;;;6.40;;
1471;SDS011;963;42.644;23.336;2023-07-13T12:37:43;10.23;;;6.10;;
1471;SDS011;963;42.644;23.336;2023-07-13T12:40:17;8.30;;;5.30;;
1471;SDS011;963;42.644;23.336;2023-07-13T12:42:47;10.00;;;6.37;;
1471;SDS011;963;42.644;23.336;2023-07-13T12:45:20;15.97;;;6.73;;
1471;SDS011;963;42.644;23.336;2023-07-13T12:47:49;7.40;;;5.50;;
1471;SDS011;963;42.644;23.336;2023-07-13T12:50:19;9.53;;;5.80;;
1471;SDS011;963;42.644;23.336;2023-07-13T12:52:50;12.10;;;5.77;;
1471;SDS011;963;42.644;23.336;2023-07-13T12:55:24;12.13;;;6.40;;
1471;SDS011;963;42.644;23.336;2023-07-13T12:57:57;10.17;;;6.70;;
1471;SDS011;963;42.644;23.336;2023-07-13T13:00:58;6.63;;;5.93;;
1471;SDS011;963;42.644;23.336;2023-07-13T13:03:23;9.23;;;6.13;;
1471;SDS011;963;42.644;23.336;2023-07-13T13:06:02;15.00;;;8.30;;
1471;SDS011;963;42.644;23.336;2023-07-13T13:08:30;9.30;;;6.37;;
1471;SDS011;963;42.644;23.336;2023-07-13T13:10:57;8.90;;;6.13;;
1471;SDS011;963;42.644;23.336;2023-07-13T13:13:23;12.97;;;6.70;;
1471;SDS011;963;42.644;23.336;2023-07-13T13:15:49;10.07;;;6.03;;
1471;SDS011;963;42.644;23.336;2023-07-13T13:18:16;15.40;;;6.43;;
1471;SDS011;963;42.644;23.336;2023-07-13T13:20:42;12.80;;;6.70;;
1471;SDS011;963;42.644;23.336;2023-07-13T13:23:15;8.50;;;5.90;;
1471;SDS011;963;42.644;23.336;2023-07-13T13:25:43;11.00;;;6.33;;
1471;SDS011;963;42.644;23.336;2023-07-13T13:28:17;8.47;;;6.30;;
1471;SDS011;963;42.644;23.336;2023-07-13T13:30:45;15.27;;;6.30;;
1471;SDS011;963;42.644;23.336;2023-07-13T13:33:12;8.60;;;6.00;;
1471;SDS011;963;42.644;23.336;2023-07-13T13:35:41;12.87;;;6.17;;
1471;SDS011;963;42.644;23.336;2023-07-13T13:38:13;8.77;;;5.87;;
1471;SDS011;963;42.644;23.336;2023-07-13T13:40:44;9.50;;;6.70;;
1471;SDS011;963;42.644;23.336;2023-07-13T13:43:16;8.27;;;7.40;;
1471;SDS011;963;42.644;23.336;2023-07-13T13:45:52;10.13;;;6.30;;
1471;SDS011;963;42.644;23.336;2023-07-13T13:48:23;11.00;;;6.40;;
1471;SDS011;963;42.644;23.336;2023-07-13T13:50:56;10.63;;;6.13;;
1471;SDS011;963;42.644;23.336;2023-07-13T13:53:22;8.73;;;5.93;;
1471;SDS011;963;42.644;23.336;2023-07-13T13:55:51;11.47;;;6.10;;
1471;SDS011;963;42.644;23.336;2023-07-13T13:58:18;8.50;;;5.90;;
1471;SDS011;963;42.644;23.336;2023-07-13T14:00:44;11.10;;;6.00;;
1471;SDS011;963;42.644;23.336;2023-07-13T14:03:19;7.60;;;6.20;;
1471;SDS011;963;42.644;23.336;2023-07-13T14:05:47;8.67;;;6.20;;
1471;SDS011;963;42.644;23.336;2023-07-13T14:08:18;13.60;;;6.00;;
1471;SDS011;963;42.644;23.336;2023-07-13T14:10:45;18.47;;;7.47;;
1471;SDS011;963;42.644;23.336;2023-07-13T14:13:47;14.23;;;6.87;;
1471;SDS011;963;42.644;23.336;2023-07-13T14:16:12;14.10;;;6.43;;
1471;SDS011;963;42.644;23.336;2023-07-13T14:18:42;14.23;;;6.63;;
1471;SDS011;963;42.644;23.336;2023-07-13T14:21:15;10.10;;;6.00;;
1471;SDS011;963;42.644;23.336;2023-07-13T14:23:45;9.00;;;6.40;;
1471;SDS011;963;42.644;23.336;2023-07-13T14:26:15;11.40;;;6.23;;
1471;SDS011;963;42.644;23.336;2023-07-13T14:28:44;9.03;;;6.30;;
1471;SDS011;963;42.644;23.336;2023-07-13T14:31:12;7.90;;;5.83;;
1471;SDS011;963;42.644;23.336;2023-07-13T14:33:39;12.40;;;6.10;;
1471;SDS011;963;42.644;23.336;2023-07-13T14:39:00;11.20;;;4.70;;
1471;SDS011;963;42.644;23.336;2023-07-13T14:41:35;6.33;;;5.67;;
1471;SDS011;963;42.644;23.336;2023-07-13T14:44:00;8.07;;;5.40;;
1471;SDS011;963;42.644;23.336;2023-07-13T14:46:29;15.10;;;5.13;;
1471;SDS011;963;42.644;23.336;2023-07-13T14:51:51;12.10;;;5.17;;
1471;SDS011;963;42.644;23.336;2023-07-13T14:54:17;9.83;;;5.77;;
1471;SDS011;963;42.644;23.336;2023-07-13T14:56:42;10.03;;;5.10;;
1471;SDS011;963;42.644;23.336;2023-07-13T14:59:08;9.70;;;5.20;;
1471;SDS011;963;42.644;23.336;2023-07-13T15:01:34;8.50;;;5.03;;
1471;SDS011;963;42.644;23.336;2023-07-13T15:04:00;9.03;;;5.23;;
1471;SDS011;963;42.644;23.336;2023-07-13T15:06:25;11.13;;;5.70;;
1471;SDS011;963;42.644;23.336;2023-07-13T15:08:51;12.53;;;5.77;;
1471;SDS011;963;42.644;23.336;2023-07-13T15:11:16;9.07;;;4.83;;
1471;SDS011;963;42.644;23.336;2023-07-13T15:13:42;8.90;;;4.80;;
1471;SDS011;963;42.644;23.336;2023-07-13T15:16:16;10.50;;;5.07;;
1471;SDS011;963;42.644;23.336;2023-07-13T15:18:44;11.63;;;5.13;;
1471;SDS011;963;42.644;23.336;2023-07-13T15:21:11;12.03;;;5.80;;
1471;SDS011;963;42.644;23.336;2023-07-13T15:23:39;8.30;;;4.53;;
1471;SDS011;963;42.644;23.336;2023-07-13T15:26:05;8.43;;;4.70;;
1471;SDS011;963;42.644;23.336;2023-07-13T15:28:32;11.37;;;5.63;;
1471;SDS011;963;42.644;23.336;2023-07-13T15:30:58;10.03;;;5.60;;
1471;SDS011;963;42.644;23.336;2023-07-13T15:33:28;11.17;;;5.93;;
1471;SDS011;963;42.644;23.336;2023-07-13T15:35:56;9.20;;;4.83;;
1471;SDS011;963;42.644;23.336;2023-07-13T15:38:24;7.50;;;4.33;;
1471;SDS011;963;42.644;23.336;2023-07-13T15:40:54;6.40;;;4.00;;
1471;SDS011;963;42.644;23.336;2023-07-13T15:43:21;7.80;;;4.57;;
1471;SDS011;963;42.644;23.336;2023-07-13T15:45:48;10.57;;;4.73;;
1471;SDS011;963;42.644;23.336;2023-07-13T15:48:20;8.60;;;4.50;;
1471;SDS011;963;42.644;23.336;2023-07-13T15:50:51;7.77;;;4.30;;
1471;SDS011;963;42.644;23.336;2023-07-13T15:53:20;8.70;;;4.70;;
1471;SDS011;963;42.644;23.336;2023-07-13T15:55:48;10.93;;;4.33;;
1471;SDS011;963;42.644;23.336;2023-07-13T15:58:15;7.03;;;4.50;;
1471;SDS011;963;42.644;23.336;2023-07-13T16:00:41;9.80;;;4.70;;
1471;SDS011;963;42.644;23.336;2023-07-13T16:03:07;6.40;;;4.53;;
1471;SDS011;963;42.644;23.336;2023-07-13T16:05:32;9.10;;;4.80;;
1471;SDS011;963;42.644;23.336;2023-07-13T16:07:58;12.17;;;4.73;;
1471;SDS011;963;42.644;23.336;2023-07-13T16:10:34;9.20;;;5.10;;